sensor_id;sensor_type;location;lat;lon;timestamp;temperature;humidity
41318;DHT22;27067;51.554;7.026;2023-09-08T00:01:47;22.90;99.90
41318;DHT22;27067;51.554;7.026;2023-09-08T00:04:13;22.90;99.90
41318;DHT22;27067;51.554;7.026;2023-09-08T00:06:40;22.80;99.90
41318;DHT22;27067;51.554;7.026;2023-09-08T00:09:06;22.90;99.90
41318;DHT22;27067;51.554;7.026;2023-09-08T00:11:32;22.90;99.90
41318;DHT22;27067;51.554;7.026;2023-09-08T00:13:57;22.90;99.90
41318;DHT22;27067;51.554;7.026;2023-09-08T00:16:22;22.90;99.90
41318;DHT22;27067;51.554;7.026;2023-09-08T00:18:49;22.80;99.90
41318;DHT22;27067;51.554;7.026;2023-09-08T00:21:15;22.80;99.90
41318;DHT22;27067;51.554;7.026;2023-09-08T00:23:40;22.90;99.90
41318;DHT22;27067;51.554;7.026;2023-09-08T00:26:06;22.90;99.90
41318;DHT22;27067;51.554;7.026;2023-09-08T00:28:31;22.90;99.90
41318;DHT22;27067;51.554;7.026;2023-09-08T00:30:57;22.80;99.90
41318;DHT22;27067;51.554;7.026;2023-09-08T00:33:25;22.90;99.90
41318;DHT22;27067;51.554;7.026;2023-09-08T00:35:50;22.90;99.90
41318;DHT22;27067;51.554;7.026;2023-09-08T00:38:16;22.80;99.90
41318;DHT22;27067;51.554;7.026;2023-09-08T00:40:42;22.90;99.90
41318;DHT22;27067;51.554;7.026;2023-09-08T00:43:07;22.40;99.90
41318;DHT22;27067;51.554;7.026;2023-09-08T00:45:33;22.90;99.90
41318;DHT22;27067;51.554;7.026;2023-09-08T00:48:01;22.80;99.90
41318;DHT22;27067;51.554;7.026;2023-09-08T00:50:27;22.90;99.90
41318;DHT22;27067;51.554;7.026;2023-09-08T00:52:52;22.90;99.90
41318;DHT22;27067;51.554;7.026;2023-09-08T00:55:18;22.80;99.90
41318;DHT22;27067;51.554;7.026;2023-09-08T00:57:43;22.90;99.90
41318;DHT22;27067;51.554;7.026;2023-09-08T01:00:09;22.80;99.90
41318;DHT22;27067;51.554;7.026;2023-09-08T01:02:34;22.80;99.90
41318;DHT22;27067;51.554;7.026;2023-09-08T01:05:00;22.90;99.90
41318;DHT22;27067;51.554;7.026;2023-09-08T01:07:26;22.80;99.90
41318;DHT22;27067;51.554;7.026;2023-09-08T01:09:54;22.80;99.90
41318;DHT22;27067;51.554;7.026;2023-09-08T01:12:20;22.80;99.90
41318;DHT22;27067;51.554;7.026;2023-09-08T01:14:45;22.80;99.90
41318;DHT22;27067;51.554;7.026;2023-09-08T01:17:11;22.80;99.90
41318;DHT22;27067;51.554;7.026;2023-09-08T01:19:37;22.80;99.90
41318;DHT22;27067;51.554;7.026;2023-09-08T01:26:54;22.80;99.90
41318;DHT22;27067;51.554;7.026;2023-09-08T01:29:20;22.80;99.90
41318;DHT22;27067;51.554;7.026;2023-09-08T01:31:48;22.80;99.90
41318;DHT22;27067;51.554;7.026;2023-09-08T01:34:14;22.80;99.90
41318;DHT22;27067;51.554;7.026;2023-09-08T01:36:39;22.80;99.90
41318;DHT22;27067;51.554;7.026;2023-09-08T01:39:05;22.80;99.90
41318;DHT22;27067;51.554;7.026;2023-09-08T01:41:31;22.80;99.90
41318;DHT22;27067;51.554;7.026;2023-09-08T01:43:59;22.80;99.90
41318;DHT22;27067;51.554;7.026;2023-09-08T01:46:25;22.80;99.90
41318;DHT22;27067;51.554;7.026;2023-09-08T01:48:50;22.80;99.90
41318;DHT22;27067;51.554;7.026;2023-09-08T01:51:16;22.80;99.90
41318;DHT22;27067;51.554;7.026;2023-09-08T01:53:41;22.80;99.90
41318;DHT22;27067;51.554;7.026;2023-09-08T01:56:07;22.80;99.90
41318;DHT22;27067;51.554;7.026;2023-09-08T01:58:32;22.80;99.90
41318;DHT22;27067;51.554;7.026;2023-09-08T02:00:59;22.80;99.90
41318;DHT22;27067;51.554;7.026;2023-09-08T02:03:31;22.70;99.90
41318;DHT22;27067;51.554;7.026;2023-09-08T02:05:57;22.80;99.90
41318;DHT22;27067;51.554;7.026;2023-09-08T02:08:22;22.80;99.90
41318;DHT22;27067;51.554;7.026;2023-09-08T02:10:48;22.80;99.90
41318;DHT22;27067;51.554;7.026;2023-09-08T02:13:13;22.80;99.90
41318;DHT22;27067;51.554;7.026;2023-09-08T02:15:39;22.70;99.90
41318;DHT22;27067;51.554;7.026;2023-09-08T02:18:06;22.80;99.90
41318;DHT22;27067;51.554;7.026;2023-09-08T02:20:32;22.70;99.90
41318;DHT22;27067;51.554;7.026;2023-09-08T02:23:03;22.70;99.90
41318;DHT22;27067;51.554;7.026;2023-09-08T02:25:29;22.70;99.90
41318;DHT22;27067;51.554;7.026;2023-09-08T02:27:54;22.70;99.90
41318;DHT22;27067;51.554;7.026;2023-09-08T02:30:20;22.70;99.90
41318;DHT22;27067;51.554;7.026;2023-09-08T02:32:45;22.70;99.90
41318;DHT22;27067;51.554;7.026;2023-09-08T02:35:11;22.70;99.90
41318;DHT22;27067;51.554;7.026;2023-09-08T02:37:36;22.70;99.90
41318;DHT22;27067;51.554;7.026;2023-09-08T02:40:02;22.70;99.90
41318;DHT22;27067;51.554;7.026;2023-09-08T02:42:29;22.70;99.90
41318;DHT22;27067;51.554;7.026;2023-09-08T02:44:54;22.70;99.90
41318;DHT22;27067;51.554;7.026;2023-09-08T02:47:20;22.70;99.90
41318;DHT22;27067;51.554;7.026;2023-09-08T02:49:45;22.70;99.90
41318;DHT22;27067;51.554;7.026;2023-09-08T02:52:11;22.70;99.90
41318;DHT22;27067;51.554;7.026;2023-09-08T02:54:36;22.70;99.90
41318;DHT22;27067;51.554;7.026;2023-09-08T02:57:02;22.70;99.90
41318;DHT22;27067;51.554;7.026;2023-09-08T02:59:28;22.70;99.90
41318;DHT22;27067;51.554;7.026;2023-09-08T03:01:53;22.70;99.90
41318;DHT22;27067;51.554;7.026;2023-09-08T03:04:19;22.70;99.90
41318;DHT22;27067;51.554;7.026;2023-09-08T03:06:44;22.60;99.90
41318;DHT22;27067;51.554;7.026;2023-09-08T03:09:10;22.70;99.90
41318;DHT22;27067;51.554;7.026;2023-09-08T03:11:35;22.70;99.90
41318;DHT22;27067;51.554;7.026;2023-09-08T03:14:02;22.70;99.90
41318;DHT22;27067;51.554;7.026;2023-09-08T03:16:28;22.70;99.90
41318;DHT22;27067;51.554;7.026;2023-09-08T03:18:53;22.70;99.90
41318;DHT22;27067;51.554;7.026;2023-09-08T03:21:19;22.70;99.90
41318;DHT22;27067;51.554;7.026;2023-09-08T03:23:45;22.70;99.90
41318;DHT22;27067;51.554;7.026;2023-09-08T03:26:10;22.70;99.90
41318;DHT22;27067;51.554;7.026;2023-09-08T03:28:36;22.60;99.90
41318;DHT22;27067;51.554;7.026;2023-09-08T03:31:02;22.70;99.90
41318;DHT22;27067;51.554;7.026;2023-09-08T03:33:28;22.70;99.90
41318;DHT22;27067;51.554;7.026;2023-09-08T03:35:53;22.70;99.90
41318;DHT22;27067;51.554;7.026;2023-09-08T03:38:20;22.60;99.90
41318;DHT22;27067;51.554;7.026;2023-09-08T03:40:46;22.60;99.90
41318;DHT22;27067;51.554;7.026;2023-09-08T03:43:12;22.60;99.90
41318;DHT22;27067;51.554;7.026;2023-09-08T03:45:37;22.60;99.90
41318;DHT22;27067;51.554;7.026;2023-09-08T03:48:03;22.60;99.90
41318;DHT22;27067;51.554;7.026;2023-09-08T03:50:29;22.60;99.90
41318;DHT22;27067;51.554;7.026;2023-09-08T03:52:55;22.60;99.90
41318;DHT22;27067;51.554;7.026;2023-09-08T03:55:28;22.60;99.90
41318;DHT22;27067;51.554;7.026;2023-09-08T03:57:53;22.60;99.90
41318;DHT22;27067;51.554;7.026;2023-09-08T04:00:19;22.60;99.90
41318;DHT22;27067;51.554;7.026;2023-09-08T04:02:47;22.60;99.90
41318;DHT22;27067;51.554;7.026;2023-09-08T04:05:13;22.60;99.90
41318;DHT22;27067;51.554;7.026;2023-09-08T04:07:39;22.60;99.90
41318;DHT22;27067;51.554;7.026;2023-09-08T04:10:05;22.50;99.90
41318;DHT22;27067;51.554;7.026;2023-09-08T04:12:30;22.60;99.90
41318;DHT22;27067;51.554;7.026;2023-09-08T04:14:56;22.60;99.90
41318;DHT22;27067;51.554;7.026;2023-09-08T04:17:21;22.50;99.90
41318;DHT22;27067;51.554;7.026;2023-09-08T04:19:47;22.60;99.90
41318;DHT22;27067;51.554;7.026;2023-09-08T04:22:13;22.60;99.90
41318;DHT22;27067;51.554;7.026;2023-09-08T04:24:38;22.60;99.90
41318;DHT22;27067;51.554;7.026;2023-09-08T04:27:04;22.50;99.90
41318;DHT22;27067;51.554;7.026;2023-09-08T04:29:30;22.50;99.90
41318;DHT22;27067;51.554;7.026;2023-09-08T04:31:55;22.50;99.90
41318;DHT22;27067;51.554;7.026;2023-09-08T04:34:21;22.50;99.90
41318;DHT22;27067;51.554;7.026;2023-09-08T04:36:46;22.50;99.90
41318;DHT22;27067;51.554;7.026;2023-09-08T04:39:12;22.50;99.90
41318;DHT22;27067;51.554;7.026;2023-09-08T04:41:37;22.50;99.90
41318;DHT22;27067;51.554;7.026;2023-09-08T04:44:03;22.50;99.90
41318;DHT22;27067;51.554;7.026;2023-09-08T04:46:29;22.50;99.90
41318;DHT22;27067;51.554;7.026;2023-09-08T04:48:55;22.50;99.90
41318;DHT22;27067;51.554;7.026;2023-09-08T04:51:20;22.50;99.90
41318;DHT22;27067;51.554;7.026;2023-09-08T04:53:46;22.50;99.90
41318;DHT22;27067;51.554;7.026;2023-09-08T04:56:12;22.50;99.90
41318;DHT22;27067;51.554;7.026;2023-09-08T04:58:38;22.50;99.90
41318;DHT22;27067;51.554;7.026;2023-09-08T05:01:04;22.50;99.90
41318;DHT22;27067;51.554;7.026;2023-09-08T05:03:30;22.50;99.90
41318;DHT22;27067;51.554;7.026;2023-09-08T05:05:56;22.50;99.90
41318;DHT22;27067;51.554;7.026;2023-09-08T05:08:22;22.50;99.90
41318;DHT22;27067;51.554;7.026;2023-09-08T05:10:48;22.40;99.90
41318;DHT22;27067;51.554;7.026;2023-09-08T05:13:13;22.40;99.90
41318;DHT22;27067;51.554;7.026;2023-09-08T05:15:39;22.40;99.90
41318;DHT22;27067;51.554;7.026;2023-09-08T05:18:07;22.40;99.90
41318;DHT22;27067;51.554;7.026;2023-09-08T05:20:33;22.40;99.90
41318;DHT22;27067;51.554;7.026;2023-09-08T05:22:58;22.40;99.90
41318;DHT22;27067;51.554;7.026;2023-09-08T05:25:24;22.40;99.90
41318;DHT22;27067;51.554;7.026;2023-09-08T05:27:49;22.40;99.90
41318;DHT22;27067;51.554;7.026;2023-09-08T05:30:15;22.40;99.90
41318;DHT22;27067;51.554;7.026;2023-09-08T05:32:41;22.40;99.90
41318;DHT22;27067;51.554;7.026;2023-09-08T05:35:06;22.40;99.90
41318;DHT22;27067;51.554;7.026;2023-09-08T05:37:32;22.40;99.90
41318;DHT22;27067;51.554;7.026;2023-09-08T05:39:57;22.40;99.90
41318;DHT22;27067;51.554;7.026;2023-09-08T05:42:23;22.40;99.90
41318;DHT22;27067;51.554;7.026;2023-09-08T05:44:48;22.40;99.90
41318;DHT22;27067;51.554;7.026;2023-09-08T05:47:14;22.40;99.90
41318;DHT22;27067;51.554;7.026;2023-09-08T05:49:39;22.40;99.90
41318;DHT22;27067;51.554;7.026;2023-09-08T05:52:05;22.40;99.90
41318;DHT22;27067;51.554;7.026;2023-09-08T05:54:30;22.40;99.90
41318;DHT22;27067;51.554;7.026;2023-09-08T05:56:56;22.40;99.90
41318;DHT22;27067;51.554;7.026;2023-09-08T05:59:22;22.40;99.90
41318;DHT22;27067;51.554;7.026;2023-09-08T06:01:47;22.40;99.90
41318;DHT22;27067;51.554;7.026;2023-09-08T06:04:13;22.40;99.90
41318;DHT22;27067;51.554;7.026;2023-09-08T06:06:38;22.40;99.90
41318;DHT22;27067;51.554;7.026;2023-09-08T06:09:05;22.40;99.90
41318;DHT22;27067;51.554;7.026;2023-09-08T06:11:31;22.40;99.90
41318;DHT22;27067;51.554;7.026;2023-09-08T06:13:57;22.40;99.90
41318;DHT22;27067;51.554;7.026;2023-09-08T06:16:24;22.40;99.90
41318;DHT22;27067;51.554;7.026;2023-09-08T06:18:50;22.40;99.90
41318;DHT22;27067;51.554;7.026;2023-09-08T06:21:16;22.40;99.90
41318;DHT22;27067;51.554;7.026;2023-09-08T06:23:41;22.40;99.90
41318;DHT22;27067;51.554;7.026;2023-09-08T06:26:07;22.40;99.90
41318;DHT22;27067;51.554;7.026;2023-09-08T06:28:32;22.40;99.90
41318;DHT22;27067;51.554;7.026;2023-09-08T06:30:58;22.40;99.90
41318;DHT22;27067;51.554;7.026;2023-09-08T06:33:23;22.40;99.90
41318;DHT22;27067;51.554;7.026;2023-09-08T06:35:49;22.40;99.90
41318;DHT22;27067;51.554;7.026;2023-09-08T06:38:15;22.40;99.90
41318;DHT22;27067;51.554;7.026;2023-09-08T06:40:40;22.40;99.90
41318;DHT22;27067;51.554;7.026;2023-09-08T06:43:06;22.40;99.90
41318;DHT22;27067;51.554;7.026;2023-09-08T06:45:31;22.40;99.90
41318;DHT22;27067;51.554;7.026;2023-09-08T06:47:57;22.40;99.90
41318;DHT22;27067;51.554;7.026;2023-09-08T06:50:22;22.40;99.90
41318;DHT22;27067;51.554;7.026;2023-09-08T06:52:51;22.40;99.90
41318;DHT22;27067;51.554;7.026;2023-09-08T06:55:17;22.30;99.90
41318;DHT22;27067;51.554;7.026;2023-09-08T06:57:43;22.40;99.90
41318;DHT22;27067;51.554;7.026;2023-09-08T07:00:09;22.40;99.90
41318;DHT22;27067;51.554;7.026;2023-09-08T07:02:37;22.40;99.90
41318;DHT22;27067;51.554;7.026;2023-09-08T07:05:02;22.30;99.90
41318;DHT22;27067;51.554;7.026;2023-09-08T07:07:33;22.40;99.90
41318;DHT22;27067;51.554;7.026;2023-09-08T07:09:59;22.40;99.90
41318;DHT22;27067;51.554;7.026;2023-09-08T07:12:24;22.30;99.90
41318;DHT22;27067;51.554;7.026;2023-09-08T07:14:50;22.40;99.90
41318;DHT22;27067;51.554;7.026;2023-09-08T07:17:15;22.40;99.90
41318;DHT22;27067;51.554;7.026;2023-09-08T07:19:41;22.30;99.90
41318;DHT22;27067;51.554;7.026;2023-09-08T07:22:07;22.40;99.90
41318;DHT22;27067;51.554;7.026;2023-09-08T07:24:32;22.30;99.90
41318;DHT22;27067;51.554;7.026;2023-09-08T07:26:58;22.30;99.90
41318;DHT22;27067;51.554;7.026;2023-09-08T07:29:23;22.30;99.90
41318;DHT22;27067;51.554;7.026;2023-09-08T07:31:49;22.30;99.90
41318;DHT22;27067;51.554;7.026;2023-09-08T07:34:14;22.30;99.90
41318;DHT22;27067;51.554;7.026;2023-09-08T07:36:40;22.30;99.90
41318;DHT22;27067;51.554;7.026;2023-09-08T07:39:05;22.30;99.90
41318;DHT22;27067;51.554;7.026;2023-09-08T07:41:31;22.30;99.90
41318;DHT22;27067;51.554;7.026;2023-09-08T07:43:56;22.30;99.90
41318;DHT22;27067;51.554;7.026;2023-09-08T07:46:22;22.30;99.90
41318;DHT22;27067;51.554;7.026;2023-09-08T07:48:48;22.30;99.90
41318;DHT22;27067;51.554;7.026;2023-09-08T07:51:13;22.30;99.90
41318;DHT22;27067;51.554;7.026;2023-09-08T07:53:39;22.30;99.90
41318;DHT22;27067;51.554;7.026;2023-09-08T07:56:04;22.30;99.90
41318;DHT22;27067;51.554;7.026;2023-09-08T07:58:30;22.30;99.90
41318;DHT22;27067;51.554;7.026;2023-09-08T08:00:56;22.30;99.90
41318;DHT22;27067;51.554;7.026;2023-09-08T08:03:21;22.30;99.90
41318;DHT22;27067;51.554;7.026;2023-09-08T08:05:47;22.30;99.90
41318;DHT22;27067;51.554;7.026;2023-09-08T08:08:12;22.20;99.90
41318;DHT22;27067;51.554;7.026;2023-09-08T08:10:40;22.30;99.90
41318;DHT22;27067;51.554;7.026;2023-09-08T08:13:05;22.30;99.90
41318;DHT22;27067;51.554;7.026;2023-09-08T08:15:35;22.20;99.90
41318;DHT22;27067;51.554;7.026;2023-09-08T08:18:00;22.30;99.90
41318;DHT22;27067;51.554;7.026;2023-09-08T08:20:26;22.30;99.90
41318;DHT22;27067;51.554;7.026;2023-09-08T08:22:52;22.30;99.90
41318;DHT22;27067;51.554;7.026;2023-09-08T08:25:17;22.30;99.90
41318;DHT22;27067;51.554;7.026;2023-09-08T08:27:43;22.20;99.90
41318;DHT22;27067;51.554;7.026;2023-09-08T08:30:08;22.30;99.90
41318;DHT22;27067;51.554;7.026;2023-09-08T08:32:34;22.20;99.90
41318;DHT22;27067;51.554;7.026;2023-09-08T08:35:00;22.20;99.90
41318;DHT22;27067;51.554;7.026;2023-09-08T08:37:25;21.70;99.90
41318;DHT22;27067;51.554;7.026;2023-09-08T08:39:51;22.30;99.90
41318;DHT22;27067;51.554;7.026;2023-09-08T08:42:16;22.20;99.90
41318;DHT22;27067;51.554;7.026;2023-09-08T08:44:42;22.20;99.90
41318;DHT22;27067;51.554;7.026;2023-09-08T08:47:09;22.20;99.90
41318;DHT22;27067;51.554;7.026;2023-09-08T08:49:35;22.20;99.90
41318;DHT22;27067;51.554;7.026;2023-09-08T08:52:01;22.30;99.90
41318;DHT22;27067;51.554;7.026;2023-09-08T08:54:37;22.20;99.90
41318;DHT22;27067;51.554;7.026;2023-09-08T08:57:03;22.20;99.90
41318;DHT22;27067;51.554;7.026;2023-09-08T08:59:29;22.20;99.90
41318;DHT22;27067;51.554;7.026;2023-09-08T09:01:55;22.20;99.90
41318;DHT22;27067;51.554;7.026;2023-09-08T09:04:21;22.20;99.90
41318;DHT22;27067;51.554;7.026;2023-09-08T09:06:47;22.20;99.90
41318;DHT22;27067;51.554;7.026;2023-09-08T09:09:12;22.20;99.90
41318;DHT22;27067;51.554;7.026;2023-09-08T09:11:39;22.20;99.90
41318;DHT22;27067;51.554;7.026;2023-09-08T09:14:05;22.20;99.90
41318;DHT22;27067;51.554;7.026;2023-09-08T09:16:30;22.20;99.90
41318;DHT22;27067;51.554;7.026;2023-09-08T09:18:57;22.30;99.90
41318;DHT22;27067;51.554;7.026;2023-09-08T09:21:22;22.20;99.90
41318;DHT22;27067;51.554;7.026;2023-09-08T09:23:48;22.20;99.90
41318;DHT22;27067;51.554;7.026;2023-09-08T09:26:24;22.30;99.90
41318;DHT22;27067;51.554;7.026;2023-09-08T09:28:51;22.20;99.90
41318;DHT22;27067;51.554;7.026;2023-09-08T09:31:23;22.20;99.90
41318;DHT22;27067;51.554;7.026;2023-09-08T09:34:00;22.20;99.90
41318;DHT22;27067;51.554;7.026;2023-09-08T09:36:26;22.30;99.90
41318;DHT22;27067;51.554;7.026;2023-09-08T09:38:52;22.20;99.90
41318;DHT22;27067;51.554;7.026;2023-09-08T09:41:17;22.30;99.90
41318;DHT22;27067;51.554;7.026;2023-09-08T09:43:43;22.30;99.90
41318;DHT22;27067;51.554;7.026;2023-09-08T09:46:09;22.30;99.90
41318;DHT22;27067;51.554;7.026;2023-09-08T09:48:35;22.30;99.90
41318;DHT22;27067;51.554;7.026;2023-09-08T09:51:14;22.20;99.90
41318;DHT22;27067;51.554;7.026;2023-09-08T09:53:40;22.30;99.90
41318;DHT22;27067;51.554;7.026;2023-09-08T09:56:07;22.30;99.90
41318;DHT22;27067;51.554;7.026;2023-09-08T09:58:33;22.30;99.90
41318;DHT22;27067;51.554;7.026;2023-09-08T10:00:59;22.30;99.90
41318;DHT22;27067;51.554;7.026;2023-09-08T10:03:26;22.30;99.90
41318;DHT22;27067;51.554;7.026;2023-09-08T10:05:51;22.30;99.90
41318;DHT22;27067;51.554;7.026;2023-09-08T10:08:17;22.30;99.90
41318;DHT22;27067;51.554;7.026;2023-09-08T10:10:43;22.30;99.90
41318;DHT22;27067;51.554;7.026;2023-09-08T10:13:11;22.30;99.90
41318;DHT22;27067;51.554;7.026;2023-09-08T10:15:38;22.40;99.90
41318;DHT22;27067;51.554;7.026;2023-09-08T10:18:04;22.30;99.90
41318;DHT22;27067;51.554;7.026;2023-09-08T10:20:30;22.30;99.90
41318;DHT22;27067;51.554;7.026;2023-09-08T10:23:00;22.30;99.90
41318;DHT22;27067;51.554;7.026;2023-09-08T10:25:28;22.30;99.90
41318;DHT22;27067;51.554;7.026;2023-09-08T10:27:56;22.40;99.90
41318;DHT22;27067;51.554;7.026;2023-09-08T10:30:23;22.40;99.90
41318;DHT22;27067;51.554;7.026;2023-09-08T10:32:49;22.40;99.90
41318;DHT22;27067;51.554;7.026;2023-09-08T10:35:15;22.40;99.90
41318;DHT22;27067;51.554;7.026;2023-09-08T10:37:42;22.40;99.90
41318;DHT22;27067;51.554;7.026;2023-09-08T10:40:21;22.40;99.90
41318;DHT22;27067;51.554;7.026;2023-09-08T10:42:47;22.40;99.90
41318;DHT22;27067;51.554;7.026;2023-09-08T10:45:17;22.40;99.90
41318;DHT22;27067;51.554;7.026;2023-09-08T10:50:18;22.40;99.90
41318;DHT22;27067;51.554;7.026;2023-09-08T10:52:44;22.40;99.90
41318;DHT22;27067;51.554;7.026;2023-09-08T10:55:10;22.30;99.90
41318;DHT22;27067;51.554;7.026;2023-09-08T10:57:36;22.40;99.90
41318;DHT22;27067;51.554;7.026;2023-09-08T11:00:03;22.40;99.90
41318;DHT22;27067;51.554;7.026;2023-09-08T11:02:49;22.40;99.90
41318;DHT22;27067;51.554;7.026;2023-09-08T11:05:19;22.40;99.90
41318;DHT22;27067;51.554;7.026;2023-09-08T11:07:47;22.40;99.90
41318;DHT22;27067;51.554;7.026;2023-09-08T11:10:14;22.40;99.90
41318;DHT22;27067;51.554;7.026;2023-09-08T11:12:40;22.40;99.90
41318;DHT22;27067;51.554;7.026;2023-09-08T11:15:06;22.40;99.90
41318;DHT22;27067;51.554;7.026;2023-09-08T11:17:36;22.40;99.90
41318;DHT22;27067;51.554;7.026;2023-09-08T11:20:04;22.40;99.90
41318;DHT22;27067;51.554;7.026;2023-09-08T11:22:34;22.40;99.90
41318;DHT22;27067;51.554;7.026;2023-09-08T11:25:00;22.40;99.90
41318;DHT22;27067;51.554;7.026;2023-09-08T11:27:29;22.40;99.90
41318;DHT22;27067;51.554;7.026;2023-09-08T11:29:55;22.40;99.90
41318;DHT22;27067;51.554;7.026;2023-09-08T11:32:21;22.40;99.90
41318;DHT22;27067;51.554;7.026;2023-09-08T11:34:47;22.40;99.90
41318;DHT22;27067;51.554;7.026;2023-09-08T11:37:13;22.40;99.90
41318;DHT22;27067;51.554;7.026;2023-09-08T11:39:39;22.40;99.90
41318;DHT22;27067;51.554;7.026;2023-09-08T11:42:05;22.40;99.90
41318;DHT22;27067;51.554;7.026;2023-09-08T11:44:31;22.40;99.90
41318;DHT22;27067;51.554;7.026;2023-09-08T11:46:56;22.40;99.90
41318;DHT22;27067;51.554;7.026;2023-09-08T11:49:22;22.50;99.90
41318;DHT22;27067;51.554;7.026;2023-09-08T11:51:49;22.50;99.90
41318;DHT22;27067;51.554;7.026;2023-09-08T11:54:14;22.50;99.90
41318;DHT22;27067;51.554;7.026;2023-09-08T11:56:40;22.50;99.90
41318;DHT22;27067;51.554;7.026;2023-09-08T11:59:06;22.50;99.90
41318;DHT22;27067;51.554;7.026;2023-09-08T12:01:32;22.40;99.90
41318;DHT22;27067;51.554;7.026;2023-09-08T12:03:58;22.50;99.90
41318;DHT22;27067;51.554;7.026;2023-09-08T12:06:26;22.50;99.90
41318;DHT22;27067;51.554;7.026;2023-09-08T12:08:53;22.50;99.90
41318;DHT22;27067;51.554;7.026;2023-09-08T12:11:18;22.50;99.90
41318;DHT22;27067;51.554;7.026;2023-09-08T12:13:44;22.50;99.90
41318;DHT22;27067;51.554;7.026;2023-09-08T12:16:19;22.50;99.90
41318;DHT22;27067;51.554;7.026;2023-09-08T12:18:45;22.50;99.90
41318;DHT22;27067;51.554;7.026;2023-09-08T12:21:11;22.50;99.90
41318;DHT22;27067;51.554;7.026;2023-09-08T12:23:49;22.50;99.90
41318;DHT22;27067;51.554;7.026;2023-09-08T12:26:15;22.50;99.90
41318;DHT22;27067;51.554;7.026;2023-09-08T12:28:44;22.50;99.90
41318;DHT22;27067;51.554;7.026;2023-09-08T12:31:10;22.50;99.90
41318;DHT22;27067;51.554;7.026;2023-09-08T12:33:37;22.50;99.90
41318;DHT22;27067;51.554;7.026;2023-09-08T12:36:16;22.50;99.90
41318;DHT22;27067;51.554;7.026;2023-09-08T12:38:51;22.50;99.90
41318;DHT22;27067;51.554;7.026;2023-09-08T12:41:17;22.50;99.90
41318;DHT22;27067;51.554;7.026;2023-09-08T12:43:44;22.50;99.90
41318;DHT22;27067;51.554;7.026;2023-09-08T12:46:09;22.50;99.90
41318;DHT22;27067;51.554;7.026;2023-09-08T12:48:35;22.60;99.90
41318;DHT22;27067;51.554;7.026;2023-09-08T12:51:00;22.50;99.90
41318;DHT22;27067;51.554;7.026;2023-09-08T12:53:26;22.60;99.90
41318;DHT22;27067;51.554;7.026;2023-09-08T12:55:55;22.60;99.90
41318;DHT22;27067;51.554;7.026;2023-09-08T12:58:20;23.10;99.90
41318;DHT22;27067;51.554;7.026;2023-09-08T13:00:46;22.60;99.90
41318;DHT22;27067;51.554;7.026;2023-09-08T13:03:12;22.60;99.90
41318;DHT22;27067;51.554;7.026;2023-09-08T13:05:37;22.60;99.90
41318;DHT22;27067;51.554;7.026;2023-09-08T13:08:04;22.60;99.90
41318;DHT22;27067;51.554;7.026;2023-09-08T13:10:29;22.60;99.90
41318;DHT22;27067;51.554;7.026;2023-09-08T13:12:55;22.60;99.90
41318;DHT22;27067;51.554;7.026;2023-09-08T13:15:20;22.60;99.90
41318;DHT22;27067;51.554;7.026;2023-09-08T13:17:46;22.60;99.90
41318;DHT22;27067;51.554;7.026;2023-09-08T13:20:11;22.60;99.90
41318;DHT22;27067;51.554;7.026;2023-09-08T13:22:37;22.60;99.90
41318;DHT22;27067;51.554;7.026;2023-09-08T13:25:03;22.60;99.90
41318;DHT22;27067;51.554;7.026;2023-09-08T13:27:29;22.60;99.90
41318;DHT22;27067;51.554;7.026;2023-09-08T13:29:54;22.60;99.90
41318;DHT22;27067;51.554;7.026;2023-09-08T13:32:20;22.60;99.90
41318;DHT22;27067;51.554;7.026;2023-09-08T13:34:46;22.60;99.90
41318;DHT22;27067;51.554;7.026;2023-09-08T13:37:13;22.60;99.90
41318;DHT22;27067;51.554;7.026;2023-09-08T13:39:38;22.60;99.90
41318;DHT22;27067;51.554;7.026;2023-09-08T13:42:04;22.60;99.90
41318;DHT22;27067;51.554;7.026;2023-09-08T13:44:30;22.70;99.90
41318;DHT22;27067;51.554;7.026;2023-09-08T13:46:58;22.60;99.90
41318;DHT22;27067;51.554;7.026;2023-09-08T13:49:25;22.70;99.90
41318;DHT22;27067;51.554;7.026;2023-09-08T13:51:51;22.60;99.90
41318;DHT22;27067;51.554;7.026;2023-09-08T13:54:21;22.60;99.90
41318;DHT22;27067;51.554;7.026;2023-09-08T13:56:56;22.70;99.90
41318;DHT22;27067;51.554;7.026;2023-09-08T13:59:22;22.70;99.90
41318;DHT22;27067;51.554;7.026;2023-09-08T14:01:47;22.70;99.90
41318;DHT22;27067;51.554;7.026;2023-09-08T14:04:13;22.70;99.90
41318;DHT22;27067;51.554;7.026;2023-09-08T14:06:39;22.70;99.90
41318;DHT22;27067;51.554;7.026;2023-09-08T14:09:07;22.70;99.90
41318;DHT22;27067;51.554;7.026;2023-09-08T14:11:33;22.70;99.90
41318;DHT22;27067;51.554;7.026;2023-09-08T14:13:59;22.70;99.90
41318;DHT22;27067;51.554;7.026;2023-09-08T14:16:24;22.70;99.90
41318;DHT22;27067;51.554;7.026;2023-09-08T14:18:50;22.70;99.90
41318;DHT22;27067;51.554;7.026;2023-09-08T14:21:15;22.70;99.90
41318;DHT22;27067;51.554;7.026;2023-09-08T14:23:41;22.70;99.90
41318;DHT22;27067;51.554;7.026;2023-09-08T14:26:07;22.70;99.90
41318;DHT22;27067;51.554;7.026;2023-09-08T14:28:33;22.70;99.90
41318;DHT22;27067;51.554;7.026;2023-09-08T14:30:59;22.70;99.90
41318;DHT22;27067;51.554;7.026;2023-09-08T14:33:28;22.70;99.90
41318;DHT22;27067;51.554;7.026;2023-09-08T14:35:56;22.70;99.90
41318;DHT22;27067;51.554;7.026;2023-09-08T14:38:21;22.80;99.90
41318;DHT22;27067;51.554;7.026;2023-09-08T14:40:57;22.70;99.90
41318;DHT22;27067;51.554;7.026;2023-09-08T14:43:23;22.80;99.90
41318;DHT22;27067;51.554;7.026;2023-09-08T14:45:52;22.80;99.90
41318;DHT22;27067;51.554;7.026;2023-09-08T14:48:24;22.70;99.90
41318;DHT22;27067;51.554;7.026;2023-09-08T14:50:50;22.70;99.90
41318;DHT22;27067;51.554;7.026;2023-09-08T14:53:18;22.80;99.90
41318;DHT22;27067;51.554;7.026;2023-09-08T14:55:44;22.80;99.90
41318;DHT22;27067;51.554;7.026;2023-09-08T14:58:10;22.80;99.90
41318;DHT22;27067;51.554;7.026;2023-09-08T15:00:37;22.80;99.90
41318;DHT22;27067;51.554;7.026;2023-09-08T15:03:03;22.80;99.90
41318;DHT22;27067;51.554;7.026;2023-09-08T15:05:30;22.80;99.90
41318;DHT22;27067;51.554;7.026;2023-09-08T15:07:57;22.80;99.90
41318;DHT22;27067;51.554;7.026;2023-09-08T15:10:22;22.80;99.90
41318;DHT22;27067;51.554;7.026;2023-09-08T15:12:48;22.80;99.90
41318;DHT22;27067;51.554;7.026;2023-09-08T15:15:14;22.90;99.90
41318;DHT22;27067;51.554;7.026;2023-09-08T15:17:39;22.80;99.90
41318;DHT22;27067;51.554;7.026;2023-09-08T15:20:05;22.80;99.90
41318;DHT22;27067;51.554;7.026;2023-09-08T15:22:31;22.90;99.90
41318;DHT22;27067;51.554;7.026;2023-09-08T15:24:56;22.90;99.90
41318;DHT22;27067;51.554;7.026;2023-09-08T15:27:22;22.80;99.90
41318;DHT22;27067;51.554;7.026;2023-09-08T15:29:48;22.90;99.90
41318;DHT22;27067;51.554;7.026;2023-09-08T15:32:13;22.90;99.90